createdAt,value
2022-11-24T00:01:52.899Z,87.10
2022-11-24T00:04:29.064Z,87.10
2022-11-24T00:07:04.958Z,87.10
2022-11-24T00:09:40.790Z,87.10
2022-11-24T00:12:16.607Z,87.07
2022-11-24T00:14:53.308Z,87.08
2022-11-24T00:17:29.661Z,87.16
2022-11-24T00:20:06.385Z,87.11
2022-11-24T00:22:42.294Z,87.10
2022-11-24T00:25:18.363Z,87.09
2022-11-24T00:27:54.963Z,87.10
2022-11-24T00:30:30.991Z,87.15
2022-11-24T00:33:06.970Z,87.22
2022-11-24T00:35:43.014Z,87.35
2022-11-24T00:38:18.921Z,87.46
2022-11-24T00:40:55.243Z,87.50
2022-11-24T00:43:31.014Z,87.45
2022-11-24T00:46:07.746Z,87.59
2022-11-24T00:48:43.947Z,87.69
2022-11-24T00:51:22.033Z,87.67
2022-11-24T00:53:58.464Z,87.68
2022-11-24T00:56:34.992Z,87.77
2022-11-24T00:59:10.964Z,87.89
2022-11-24T01:01:47.171Z,87.95
2022-11-24T01:04:23.015Z,88.09
2022-11-24T01:06:58.823Z,88.04
2022-11-24T01:09:34.780Z,88.12
2022-11-24T01:12:11.108Z,88.17
2022-11-24T01:14:47.414Z,88.26
2022-11-24T01:17:23.357Z,88.23
2022-11-24T01:19:59.285Z,88.27
2022-11-24T01:22:35.476Z,88.38
2022-11-24T01:25:14.046Z,88.36
2022-11-24T01:27:50.050Z,88.40
2022-11-24T01:30:26.113Z,88.41
2022-11-24T01:33:02.039Z,88.44
2022-11-24T01:35:39.038Z,88.41
2022-11-24T01:38:14.885Z,88.46
2022-11-24T01:40:50.946Z,88.37
2022-11-24T01:43:27.090Z,88.36
2022-11-24T01:46:13.117Z,88.40
2022-11-24T01:48:53.882Z,88.40
2022-11-24T01:51:35.635Z,88.40
2022-11-24T01:54:17.002Z,88.37
2022-11-24T01:56:59.132Z,88.30
2022-11-24T01:59:35.981Z,88.28
2022-11-24T02:02:12.355Z,88.30
2022-11-24T02:04:49.672Z,88.28
2022-11-24T02:07:25.907Z,88.31
2022-11-24T02:10:07.387Z,88.33
2022-11-24T02:12:47.875Z,88.34
2022-11-24T02:15:25.384Z,88.40
2022-11-24T02:18:02.899Z,88.50
2022-11-24T02:20:38.920Z,88.52
2022-11-24T02:23:26.058Z,88.52
2022-11-24T02:26:18.366Z,88.54
2022-11-24T02:28:54.446Z,88.52
2022-11-24T02:31:30.727Z,88.55
2022-11-24T02:34:06.746Z,88.52
2022-11-24T02:36:42.853Z,88.50
2022-11-24T02:39:19.475Z,88.50
2022-11-24T02:42:00.675Z,88.50
2022-11-24T02:44:43.278Z,88.51
2022-11-24T02:47:19.318Z,88.53
2022-11-24T02:49:55.366Z,88.59
2022-11-24T02:52:31.229Z,88.59
2022-11-24T02:55:08.353Z,88.59
2022-11-24T02:57:44.374Z,88.56
2022-11-24T03:00:23.073Z,88.50
2022-11-24T03:02:59.148Z,88.46
2022-11-24T03:05:36.132Z,88.40
2022-11-24T03:08:13.034Z,88.45
2022-11-24T03:10:49.378Z,88.45
2022-11-24T03:13:25.365Z,88.40
2022-11-24T03:16:01.350Z,88.42
2022-11-24T03:18:37.352Z,88.41
2022-11-24T03:21:14.635Z,88.36
2022-11-24T03:23:51.067Z,88.31
2022-11-24T03:26:28.803Z,88.30
2022-11-24T03:29:04.785Z,88.35
2022-11-24T03:31:40.892Z,88.39
2022-11-24T03:34:17.590Z,88.36
2022-11-24T03:36:53.491Z,88.32
2022-11-24T03:39:29.712Z,88.31
2022-11-24T03:42:05.973Z,88.36
2022-11-24T03:44:41.873Z,88.40
2022-11-24T03:47:18.057Z,88.33
2022-11-24T03:49:54.133Z,88.31
2022-11-24T03:52:29.908Z,88.28
2022-11-24T03:55:06.354Z,88.20
2022-11-24T03:57:42.285Z,88.18
2022-11-24T04:00:21.020Z,88.13
2022-11-24T04:02:56.960Z,88.10
2022-11-24T04:05:33.355Z,88.10
2022-11-24T04:08:10.048Z,88.11
2022-11-24T04:10:50.400Z,88.14
2022-11-24T04:13:28.454Z,88.10
2022-11-24T04:16:08.267Z,88.02
2022-11-24T04:18:44.526Z,87.91
2022-11-24T04:21:20.808Z,87.90
2022-11-24T04:23:56.938Z,87.91
2022-11-24T04:26:33.115Z,87.97
2022-11-24T04:29:10.255Z,88.00
2022-11-24T04:31:46.232Z,88.00
2022-11-24T04:34:22.362Z,88.03
2022-11-24T04:36:58.362Z,88.03
2022-11-24T04:39:34.483Z,88.11
2022-11-24T04:42:10.754Z,88.18
2022-11-24T04:44:47.076Z,88.18
2022-11-24T04:47:26.984Z,88.21
2022-11-24T04:50:02.904Z,88.23
2022-11-24T04:52:38.963Z,88.27
2022-11-24T04:55:16.382Z,88.26
2022-11-24T04:57:52.351Z,88.20
2022-11-24T05:00:28.416Z,88.19
2022-11-24T05:03:05.269Z,88.17
2022-11-24T05:05:41.352Z,88.20
2022-11-24T05:08:17.312Z,88.20
2022-11-24T05:10:53.264Z,88.21
2022-11-24T05:13:29.169Z,88.17
2022-11-24T05:16:05.651Z,88.10
2022-11-24T05:18:41.703Z,88.11
2022-11-24T05:21:17.812Z,88.11
2022-11-24T05:23:53.975Z,88.10
2022-11-24T05:26:30.614Z,88.14
2022-11-24T05:29:06.608Z,88.11
2022-11-24T05:31:42.669Z,88.06
2022-11-24T05:34:19.303Z,87.93
2022-11-24T05:36:55.497Z,87.92
2022-11-24T05:39:32.167Z,87.90
2022-11-24T05:42:24.299Z,87.90
2022-11-24T05:45:00.777Z,87.90
2022-11-24T05:47:37.236Z,87.88
2022-11-24T05:50:17.175Z,87.85
2022-11-24T05:52:53.441Z,87.90
2022-11-24T05:55:29.376Z,87.91
2022-11-24T05:58:08.030Z,87.81
2022-11-24T06:00:44.006Z,87.90
2022-11-24T06:03:19.874Z,87.87
2022-11-24T06:05:55.888Z,87.76
2022-11-24T06:08:32.685Z,87.70
2022-11-24T06:11:18.649Z,87.67
2022-11-24T06:13:55.490Z,87.65
2022-11-24T06:16:31.478Z,87.64
2022-11-24T06:19:07.601Z,87.68
2022-11-24T06:21:43.601Z,87.69
2022-11-24T06:24:19.657Z,87.66
2022-11-24T06:26:55.717Z,87.67
2022-11-24T06:29:32.426Z,87.70
2022-11-24T06:32:09.209Z,87.68
2022-11-24T06:34:45.857Z,87.70
2022-11-24T06:37:21.799Z,87.67
2022-11-24T06:39:58.062Z,87.61
2022-11-24T06:42:34.297Z,87.60
2022-11-24T06:45:12.594Z,87.60
2022-11-24T06:47:48.680Z,87.60
2022-11-24T06:50:29.226Z,87.57
2022-11-24T06:53:08.181Z,87.61
2022-11-24T06:55:45.199Z,87.60
2022-11-24T06:58:21.421Z,87.70
2022-11-24T07:00:57.432Z,87.66
2022-11-24T07:03:33.897Z,87.67
2022-11-24T07:06:10.829Z,87.69
2022-11-24T07:08:47.593Z,87.59
2022-11-24T07:11:26.227Z,87.51
2022-11-24T07:14:03.543Z,87.54
2022-11-24T07:16:40.025Z,87.49
2022-11-24T07:19:20.174Z,87.50
2022-11-24T07:21:59.274Z,87.57
2022-11-24T07:24:35.196Z,87.53
2022-11-24T07:27:11.499Z,87.55
2022-11-24T07:29:47.541Z,87.50
2022-11-24T07:32:23.369Z,87.53
2022-11-24T07:34:59.458Z,87.50
2022-11-24T07:37:36.122Z,87.44
2022-11-24T07:40:14.935Z,87.50
2022-11-24T07:42:51.002Z,87.47
2022-11-24T07:45:26.900Z,87.49
2022-11-24T07:48:02.821Z,87.49
2022-11-24T07:50:38.979Z,87.45
2022-11-24T07:53:14.936Z,87.50
2022-11-24T07:55:59.889Z,87.45
2022-11-24T07:58:38.133Z,87.57
2022-11-24T08:01:20.027Z,87.59
2022-11-24T08:03:54.473Z,87.65
2022-11-24T08:06:39.654Z,87.70
2022-11-24T08:09:18.196Z,87.76
2022-11-24T08:11:54.262Z,87.70
2022-11-24T08:14:30.214Z,87.67
2022-11-24T08:17:06.425Z,87.68
2022-11-24T08:19:42.270Z,87.76
2022-11-24T08:22:18.086Z,87.71
2022-11-24T08:24:54.112Z,87.79
2022-11-24T08:27:31.119Z,87.79
2022-11-24T08:30:08.859Z,87.78
2022-11-24T08:32:44.777Z,87.74
2022-11-24T08:35:21.098Z,87.80
2022-11-24T08:38:01.677Z,87.82
2022-11-24T08:40:40.632Z,87.75
2022-11-24T08:43:16.586Z,87.72
2022-11-24T08:45:52.679Z,87.72
2022-11-24T08:48:29.085Z,87.72
2022-11-24T08:51:12.281Z,87.74
2022-11-24T08:53:48.634Z,87.68
2022-11-24T08:56:24.646Z,87.70
2022-11-24T08:59:01.330Z,87.68
2022-11-24T09:01:39.370Z,87.70
2022-11-24T09:04:15.426Z,87.61
2022-11-24T09:06:51.476Z,87.65
2022-11-24T09:09:27.513Z,87.60
2022-11-24T09:12:03.470Z,87.66
2022-11-24T09:14:39.646Z,87.65
2022-11-24T09:17:15.705Z,87.66
2022-11-24T09:19:52.466Z,87.60
2022-11-24T09:22:28.409Z,87.60
2022-11-24T09:25:04.483Z,87.57
2022-11-24T09:27:40.547Z,87.50
2022-11-24T09:30:19.262Z,87.53
2022-11-24T09:32:56.213Z,87.61
2022-11-24T09:35:32.298Z,87.49
2022-11-24T09:38:08.293Z,87.46
2022-11-24T09:40:44.568Z,87.53
2022-11-24T09:43:39.207Z,87.45
2022-11-24T09:46:26.804Z,87.34
2022-11-24T09:49:05.216Z,87.39
2022-11-24T09:51:43.453Z,87.41
2022-11-24T09:54:24.119Z,87.36
2022-11-24T09:57:05.907Z,87.35
2022-11-24T09:59:44.897Z,87.39
2022-11-24T10:02:20.783Z,87.40
2022-11-24T10:04:57.031Z,87.35
2022-11-24T10:07:41.469Z,87.30
2022-11-24T10:10:25.200Z,87.36
2022-11-24T10:13:18.466Z,87.29
2022-11-24T10:16:13.389Z,87.27
2022-11-24T10:19:06.549Z,87.22
2022-11-24T10:22:06.891Z,87.12
2022-11-24T10:25:13.966Z,87.18
2022-11-24T10:28:00.105Z,87.11
2022-11-24T10:30:36.423Z,86.98
2022-11-24T10:33:28.717Z,86.96
2022-11-24T10:36:18.014Z,86.95
2022-11-24T10:39:04.429Z,86.90
2022-11-24T10:41:53.167Z,86.87
2022-11-24T10:44:29.654Z,86.86
2022-11-24T10:47:12.927Z,86.79
2022-11-24T10:49:56.965Z,86.66
2022-11-24T10:52:40.014Z,86.61
2022-11-24T10:55:16.191Z,86.61
2022-11-24T10:57:52.126Z,86.61
2022-11-24T11:00:38.652Z,86.73
2022-11-24T11:03:25.015Z,86.77
2022-11-24T11:06:13.500Z,86.59
2022-11-24T11:08:49.874Z,86.38
2022-11-24T11:11:30.965Z,86.43
2022-11-24T11:14:11.103Z,86.41
2022-11-24T11:16:54.774Z,86.47
2022-11-24T11:19:52.352Z,86.56
2022-11-24T11:22:34.082Z,86.56
2022-11-24T11:25:27.880Z,86.68
2022-11-24T11:28:30.899Z,86.75
2022-11-24T11:31:22.618Z,86.85
2022-11-24T11:34:23.509Z,86.84
2022-11-24T11:37:04.014Z,86.99
2022-11-24T11:39:48.634Z,86.99
2022-11-24T11:43:01.290Z,87.05
2022-11-24T11:45:42.923Z,87.18
2022-11-24T11:48:42.784Z,87.22
2022-11-24T11:51:48.307Z,87.31
2022-11-24T11:54:45.603Z,87.30
2022-11-24T11:57:39.261Z,87.22
2022-11-24T12:00:22.071Z,87.21
2022-11-24T12:03:43.845Z,87.16
2022-11-24T12:06:48.048Z,87.18
2022-11-24T12:09:43.366Z,87.19
2022-11-24T12:12:57.006Z,87.27
2022-11-24T12:15:42.091Z,87.25
2022-11-24T12:18:57.005Z,87.31
2022-11-24T12:21:48.126Z,87.27
2022-11-24T12:24:35.605Z,87.29
2022-11-24T12:27:23.521Z,87.21
2022-11-24T12:30:22.990Z,87.20
2022-11-24T12:33:35.844Z,87.19
2022-11-24T12:36:33.107Z,87.21
2022-11-24T12:39:26.608Z,87.24
2022-11-24T12:42:22.320Z,87.20
2022-11-24T12:45:16.206Z,87.23
2022-11-24T12:48:16.841Z,87.19
2022-11-24T12:50:55.952Z,87.22
2022-11-24T12:53:35.642Z,87.30
2022-11-24T12:56:17.752Z,87.30
2022-11-24T12:59:10.034Z,87.30
2022-11-24T13:01:58.589Z,87.34
2022-11-24T13:04:47.847Z,87.38
2022-11-24T13:07:39.010Z,87.40
2022-11-24T13:10:55.391Z,87.39
2022-11-24T13:14:00.852Z,87.49
2022-11-24T13:17:13.440Z,87.40
2022-11-24T13:19:45.409Z,87.30
2022-11-24T13:22:28.093Z,87.27
2022-11-24T13:25:24.812Z,87.19
2022-11-24T13:28:02.245Z,87.24
2022-11-24T13:31:12.540Z,87.31
2022-11-24T13:33:48.699Z,87.37
2022-11-24T13:36:56.301Z,87.39
2022-11-24T13:39:57.820Z,87.40
2022-11-24T13:42:54.720Z,87.41
2022-11-24T13:45:57.215Z,87.36
2022-11-24T13:49:23.720Z,87.28
2022-11-24T13:52:49.137Z,87.09
2022-11-24T13:55:33.764Z,87.10
2022-11-24T13:58:35.664Z,87.16
2022-11-24T14:01:23.132Z,87.15
2022-11-24T14:04:31.762Z,86.94
2022-11-24T14:07:19.838Z,87.09
2022-11-24T14:09:56.485Z,87.02
2022-11-24T14:12:33.888Z,86.99
2022-11-24T14:15:29.601Z,87.10
2022-11-24T14:18:22.062Z,87.20
2022-11-24T14:20:58.373Z,87.34
2022-11-24T14:23:35.576Z,87.45
2022-11-24T14:26:22.173Z,87.37
2022-11-24T14:29:20.544Z,87.19
2022-11-24T14:32:03.644Z,87.05
2022-11-24T14:34:41.929Z,86.94
2022-11-24T14:37:17.938Z,86.78
2022-11-24T14:39:53.968Z,86.52
2022-11-24T14:42:33.372Z,86.50
2022-11-24T14:45:20.678Z,86.24
2022-11-24T14:47:56.767Z,86.24
2022-11-24T14:50:33.012Z,86.27
2022-11-24T14:53:20.780Z,86.39
2022-11-24T14:59:01.612Z,86.40
2022-11-24T15:01:38.764Z,86.34
2022-11-24T15:04:46.404Z,86.27
2022-11-24T15:07:29.186Z,86.23
2022-11-24T15:10:19.279Z,86.23
2022-11-24T15:13:04.755Z,86.12
2022-11-24T15:15:47.213Z,86.22
2022-11-24T15:18:42.365Z,86.34
2022-11-24T15:21:30.968Z,86.47
2022-11-24T15:24:24.024Z,86.50
2022-11-24T15:27:05.665Z,86.58
2022-11-24T15:29:41.694Z,86.66
2022-11-24T15:32:19.713Z,86.83
2022-11-24T15:34:55.667Z,86.92
2022-11-24T15:37:34.488Z,86.98
2022-11-24T15:40:14.641Z,87.03
2022-11-24T15:42:56.043Z,87.00
2022-11-24T15:45:31.989Z,87.13
2022-11-24T15:48:10.505Z,87.19
2022-11-24T15:50:49.724Z,87.26
2022-11-24T15:53:32.864Z,87.25
2022-11-24T15:56:16.145Z,87.30
2022-11-24T15:58:52.222Z,87.05
2022-11-24T16:01:33.259Z,87.10
2022-11-24T16:04:09.430Z,87.13
2022-11-24T16:06:45.534Z,87.15
2022-11-24T16:09:21.858Z,87.20
2022-11-24T16:11:57.711Z,87.27
2022-11-24T16:14:34.185Z,87.40
2022-11-24T16:17:10.785Z,87.45
2022-11-24T16:19:50.571Z,87.43
2022-11-24T16:22:36.247Z,87.43
2022-11-24T16:25:14.483Z,87.40
2022-11-24T16:27:50.555Z,87.40
2022-11-24T16:30:26.671Z,87.47
2022-11-24T16:33:06.766Z,87.52
2022-11-24T16:35:42.847Z,87.62
2022-11-24T16:38:21.126Z,87.72
2022-11-24T16:41:00.582Z,87.82
2022-11-24T16:43:36.649Z,87.94
2022-11-24T16:46:24.787Z,88.00
2022-11-24T16:49:03.644Z,88.00
2022-11-24T16:51:39.679Z,88.00
2022-11-24T16:54:15.823Z,87.91
2022-11-24T16:56:51.885Z,87.89
2022-11-24T16:59:28.047Z,87.79
2022-11-24T17:02:04.530Z,87.72
2022-11-24T17:04:40.880Z,87.67
2022-11-24T17:07:17.026Z,87.61
2022-11-24T17:09:53.516Z,87.56
2022-11-24T17:12:30.038Z,87.50
2022-11-24T17:15:31.810Z,87.56
2022-11-24T17:18:23.401Z,87.60
2022-11-24T17:21:07.838Z,87.64
2022-11-24T17:23:46.244Z,87.67
2022-11-24T17:26:22.695Z,87.69
2022-11-24T17:28:59.141Z,87.69
2022-11-24T17:31:36.904Z,87.68
2022-11-24T17:34:15.167Z,87.69
2022-11-24T17:36:51.203Z,87.70
2022-11-24T17:39:27.927Z,87.69
2022-11-24T17:42:05.366Z,87.73
2022-11-24T17:44:41.630Z,87.80
2022-11-24T17:47:17.508Z,87.84
2022-11-24T17:49:53.740Z,87.89
2022-11-24T17:52:31.995Z,87.90
2022-11-24T17:55:09.551Z,87.91
2022-11-24T17:57:45.709Z,87.91
2022-11-24T18:00:24.040Z,87.94
2022-11-24T18:03:01.070Z,87.92
2022-11-24T18:05:40.190Z,87.90
2022-11-24T18:08:17.215Z,87.97
2022-11-24T18:10:53.408Z,88.01
2022-11-24T18:13:55.328Z,88.01
2022-11-24T18:16:30.392Z,88.09
2022-11-24T18:19:10.961Z,88.08
2022-11-24T18:21:47.633Z,88.08
2022-11-24T18:24:24.355Z,88.11
2022-11-24T18:27:00.530Z,88.13
2022-11-24T18:29:36.818Z,88.55
2022-11-24T18:32:13.031Z,88.13
2022-11-24T18:34:51.171Z,87.88
2022-11-24T18:37:27.429Z,87.88
2022-11-24T18:40:04.042Z,87.90
2022-11-24T18:42:39.949Z,87.94
2022-11-24T18:45:17.284Z,87.98
2022-11-24T18:47:53.322Z,87.97
2022-11-24T18:50:29.457Z,87.99
2022-11-24T18:53:05.902Z,87.99
2022-11-24T18:55:42.262Z,88.00
2022-11-24T18:58:18.728Z,88.00
2022-11-24T19:00:55.510Z,88.00
2022-11-24T19:03:31.691Z,88.02
2022-11-24T19:06:18.223Z,88.07
2022-11-24T19:08:57.340Z,88.09
2022-11-24T19:11:37.177Z,88.05
2022-11-24T19:14:17.796Z,88.04
2022-11-24T19:16:53.950Z,88.07
2022-11-24T19:19:34.193Z,88.10
2022-11-24T19:22:13.358Z,88.10
2022-11-24T19:24:50.874Z,88.11
2022-11-24T19:27:26.869Z,88.12
2022-11-24T19:30:02.824Z,88.19
2022-11-24T19:32:40.280Z,88.15
2022-11-24T19:35:16.680Z,88.19
2022-11-24T19:37:52.823Z,88.20
2022-11-24T19:40:28.868Z,88.27
2022-11-24T19:43:04.928Z,88.28
2022-11-24T19:45:44.573Z,88.24
2022-11-24T19:48:20.831Z,88.30
2022-11-24T19:51:05.233Z,88.39
2022-11-24T19:53:41.957Z,88.46
2022-11-24T19:56:21.617Z,88.47
2022-11-24T19:58:59.003Z,88.50
2022-11-24T20:01:38.318Z,88.50
2022-11-24T20:04:22.742Z,88.51
2022-11-24T20:07:00.406Z,88.56
2022-11-24T20:09:36.530Z,88.57
2022-11-24T20:12:13.579Z,88.63
2022-11-24T20:14:49.817Z,88.60
2022-11-24T20:17:25.897Z,88.62
2022-11-24T20:20:02.195Z,88.68
2022-11-24T20:22:38.273Z,88.70
2022-11-24T20:25:14.723Z,88.71
2022-11-24T20:27:51.857Z,88.75
2022-11-24T20:30:27.882Z,88.80
2022-11-24T20:33:04.293Z,88.80
2022-11-24T20:35:40.256Z,88.78
2022-11-24T20:38:18.699Z,88.80
2022-11-24T20:41:07.552Z,88.80
2022-11-24T20:43:46.997Z,88.82
2022-11-24T20:46:27.335Z,88.89
2022-11-24T20:49:04.605Z,88.87
2022-11-24T20:51:44.301Z,88.87
2022-11-24T20:54:21.218Z,88.82
2022-11-24T20:56:58.130Z,88.90
2022-11-24T20:59:34.291Z,88.88
2022-11-24T21:02:12.067Z,88.86
2022-11-24T21:04:48.557Z,88.83
2022-11-24T21:07:24.537Z,88.84
2022-11-24T21:10:00.595Z,88.90
2022-11-24T21:12:36.843Z,88.90
2022-11-24T21:15:14.301Z,88.94
2022-11-24T21:17:50.342Z,88.98
2022-11-24T21:20:26.636Z,88.90
2022-11-24T21:23:03.835Z,88.92
2022-11-24T21:25:40.216Z,89.00
2022-11-24T21:28:16.363Z,88.92
2022-11-24T21:30:52.428Z,88.80
2022-11-24T21:33:28.515Z,88.76
2022-11-24T21:36:09.242Z,88.81
2022-11-24T21:38:45.841Z,88.70
2022-11-24T21:41:23.659Z,88.66
2022-11-24T21:43:59.987Z,88.69
2022-11-24T21:46:43.640Z,88.70
2022-11-24T21:49:21.317Z,88.77
2022-11-24T21:51:57.412Z,88.75
2022-11-24T21:54:33.650Z,88.82
2022-11-24T21:57:10.656Z,88.90
2022-11-24T21:59:46.775Z,88.80
2022-11-24T22:02:22.875Z,88.71
2022-11-24T22:04:59.197Z,88.70
2022-11-24T22:07:38.253Z,88.70
2022-11-24T22:10:15.965Z,88.70
2022-11-24T22:12:52.314Z,88.70
2022-11-24T22:15:28.277Z,88.67
2022-11-24T22:18:04.344Z,88.70
2022-11-24T22:20:40.364Z,88.70
2022-11-24T22:23:16.944Z,88.66
2022-11-24T22:25:52.991Z,88.56
2022-11-24T22:28:30.897Z,88.54
2022-11-24T22:31:13.042Z,88.51
2022-11-24T22:33:49.648Z,88.50
2022-11-24T22:36:27.949Z,88.48
2022-11-24T22:39:06.788Z,88.44
2022-11-24T22:41:42.693Z,88.44
2022-11-24T22:44:18.763Z,88.46
2022-11-24T22:46:54.771Z,88.38
2022-11-24T22:49:30.829Z,88.19
2022-11-24T22:52:06.868Z,88.30
2022-11-24T22:54:42.762Z,88.43
2022-11-24T22:57:18.879Z,88.42
2022-11-24T22:59:54.904Z,88.45
2022-11-24T23:02:30.943Z,88.52
2022-11-24T23:05:08.467Z,88.50
2022-11-24T23:07:44.590Z,88.51
2022-11-24T23:10:20.991Z,88.50
2022-11-24T23:12:57.392Z,88.51
2022-11-24T23:15:34.098Z,88.60
2022-11-24T23:18:10.340Z,88.69
2022-11-24T23:20:46.197Z,88.70
2022-11-24T23:23:22.036Z,88.68
2022-11-24T23:26:00.451Z,88.69
2022-11-24T23:28:36.638Z,88.65
2022-11-24T23:31:15.909Z,88.61
2022-11-24T23:33:52.210Z,88.62
2022-11-24T23:36:28.874Z,88.62
2022-11-24T23:39:12.323Z,88.68
2022-11-24T23:41:48.160Z,88.61
2022-11-24T23:44:24.040Z,88.59
2022-11-24T23:47:00.096Z,88.67
2022-11-24T23:49:36.122Z,88.70
2022-11-24T23:52:12.347Z,88.70
2022-11-24T23:54:48.375Z,88.77
2022-11-24T23:57:24.256Z,88.72
